createdAt,value
2018-07-09T00:00:51.969Z,17.90
2018-07-09T00:03:20.273Z,18.28
2018-07-09T00:05:49.697Z,18.05
2018-07-09T00:08:18.404Z,17.82
2018-07-09T00:11:05.639Z,17.86
2018-07-09T00:13:34.579Z,17.76
2018-07-09T00:16:03.056Z,17.95
2018-07-09T00:18:31.599Z,17.90
2018-07-09T00:20:59.849Z,17.68
2018-07-09T00:23:28.191Z,17.56
2018-07-09T00:25:57.217Z,17.87
2018-07-09T00:28:25.939Z,17.92
2018-07-09T00:30:54.127Z,17.79
2018-07-09T00:33:22.683Z,17.57
2018-07-09T00:35:50.877Z,17.68
2018-07-09T00:38:19.605Z,17.62
2018-07-09T00:40:47.875Z,17.54
2018-07-09T00:43:16.088Z,17.74
2018-07-09T00:45:44.357Z,17.50
2018-07-09T00:48:12.657Z,17.59
2018-07-09T00:50:40.848Z,17.64
2018-07-09T00:53:09.067Z,17.41
2018-07-09T00:55:37.283Z,17.46
2018-07-09T00:58:05.855Z,17.58
2018-07-09T01:00:34.316Z,17.57
2018-07-09T01:03:02.572Z,17.11
2018-07-09T01:05:30.826Z,17.16
2018-07-09T01:07:59.063Z,17.24
2018-07-09T01:10:27.262Z,16.93
2018-07-09T01:12:55.490Z,17.10
2018-07-09T01:15:23.738Z,16.95
2018-07-09T01:17:52.032Z,17.05
2018-07-09T01:20:20.437Z,16.91
2018-07-09T01:22:49.010Z,17.20
2018-07-09T01:25:17.358Z,17.00
2018-07-09T01:27:45.625Z,16.96
2018-07-09T01:30:15.868Z,17.21
2018-07-09T01:32:44.123Z,16.73
2018-07-09T01:35:13.154Z,16.67
2018-07-09T01:37:41.989Z,16.99
2018-07-09T01:40:10.544Z,17.05
2018-07-09T01:42:38.843Z,16.88
2018-07-09T01:45:07.143Z,17.00
2018-07-09T01:47:35.398Z,17.10
2018-07-09T01:50:03.735Z,16.84
2018-07-09T01:52:32.309Z,16.76
2018-07-09T01:55:01.052Z,16.62
2018-07-09T01:57:29.325Z,16.83
2018-07-09T01:59:57.603Z,16.97
2018-07-09T02:02:25.866Z,16.86
2018-07-09T02:04:54.180Z,16.80
2018-07-09T02:07:22.425Z,16.84
2018-07-09T02:09:50.803Z,16.88
2018-07-09T02:12:19.086Z,16.42
2018-07-09T02:14:47.325Z,16.62
2018-07-09T02:17:15.561Z,16.66
2018-07-09T02:19:43.781Z,16.63
2018-07-09T02:22:12.030Z,16.63
2018-07-09T02:24:40.256Z,16.39
2018-07-09T02:27:08.557Z,16.45
2018-07-09T02:29:36.795Z,16.49
2018-07-09T02:32:05.035Z,16.55
2018-07-09T02:34:33.288Z,16.48
2018-07-09T02:37:01.504Z,16.30
2018-07-09T02:39:29.760Z,16.17
2018-07-09T02:41:58.007Z,16.13
2018-07-09T02:44:26.274Z,16.31
2018-07-09T02:46:54.529Z,16.09
2018-07-09T02:49:22.781Z,16.22
2018-07-09T02:51:51.043Z,16.21
2018-07-09T02:54:19.370Z,16.34
2018-07-09T02:56:47.642Z,16.16
2018-07-09T02:59:15.978Z,16.35
2018-07-09T03:01:44.328Z,16.25
2018-07-09T03:04:12.617Z,16.18
2018-07-09T03:06:40.861Z,16.17
2018-07-09T03:09:09.140Z,16.19
2018-07-09T03:11:37.464Z,16.24
2018-07-09T03:14:06.368Z,16.39
2018-07-09T03:16:34.863Z,16.07
2018-07-09T03:19:03.224Z,16.17
2018-07-09T03:21:31.557Z,16.25
2018-07-09T03:23:59.789Z,16.20
2018-07-09T03:26:28.050Z,16.25
2018-07-09T03:28:56.334Z,16.25
2018-07-09T03:31:24.631Z,16.30
2018-07-09T03:33:52.883Z,16.07
2018-07-09T03:36:21.176Z,16.19
2018-07-09T03:38:49.400Z,16.03
2018-07-09T03:41:17.674Z,16.27
2018-07-09T03:43:45.953Z,16.29
2018-07-09T03:46:14.212Z,16.10
2018-07-09T03:48:42.460Z,16.31
2018-07-09T03:51:10.699Z,16.17
2018-07-09T03:53:38.998Z,16.00
2018-07-09T03:56:07.432Z,15.99
2018-07-09T03:58:36.502Z,16.12
2018-07-09T04:01:04.725Z,16.06
2018-07-09T04:03:32.972Z,16.19
2018-07-09T04:06:01.320Z,16.51
2018-07-09T04:08:29.556Z,16.15
2018-07-09T04:10:57.808Z,16.15
2018-07-09T04:13:26.048Z,16.13
2018-07-09T04:15:54.282Z,16.27
2018-07-09T04:18:29.146Z,16.01
2018-07-09T04:20:57.488Z,16.79
2018-07-09T04:23:25.678Z,16.27
2018-07-09T04:25:53.902Z,15.95
2018-07-09T04:28:22.458Z,16.12
2018-07-09T04:30:51.040Z,16.10
2018-07-09T04:33:19.670Z,15.77
2018-07-09T04:35:47.888Z,16.16
2018-07-09T04:38:16.422Z,16.10
2018-07-09T04:40:44.673Z,15.96
2018-07-09T04:43:13.010Z,16.08
2018-07-09T04:45:41.219Z,16.25
2018-07-09T04:48:09.482Z,16.17
2018-07-09T04:50:37.721Z,16.22
2018-07-09T04:53:06.722Z,16.10
2018-07-09T04:55:35.073Z,16.12
2018-07-09T04:58:03.343Z,16.24
2018-07-09T05:00:31.620Z,16.26
2018-07-09T05:02:59.866Z,16.24
2018-07-09T05:05:28.358Z,16.15
2018-07-09T05:07:56.629Z,16.06
2018-07-09T05:10:24.927Z,16.15
2018-07-09T05:12:53.444Z,16.39
2018-07-09T05:15:21.703Z,16.24
2018-07-09T05:17:49.954Z,16.30
2018-07-09T05:20:18.220Z,16.51
2018-07-09T05:22:46.469Z,16.27
2018-07-09T05:25:14.793Z,16.54
2018-07-09T05:27:43.066Z,16.65
2018-07-09T05:30:11.347Z,16.64
2018-07-09T05:32:39.714Z,16.56
2018-07-09T05:35:08.107Z,16.76
2018-07-09T05:37:36.403Z,16.60
2018-07-09T05:40:04.845Z,16.61
2018-07-09T05:42:33.059Z,16.55
2018-07-09T05:45:01.303Z,16.66
2018-07-09T05:47:29.571Z,16.62
2018-07-09T05:49:57.862Z,16.78
2018-07-09T05:52:26.103Z,16.68
2018-07-09T05:54:54.366Z,16.81
2018-07-09T05:57:22.572Z,16.77
2018-07-09T05:59:50.809Z,16.96
2018-07-09T06:02:19.095Z,16.92
2018-07-09T06:04:47.350Z,16.96
2018-07-09T06:07:15.597Z,17.05
2018-07-09T06:09:43.979Z,17.00
2018-07-09T06:12:12.275Z,17.27
2018-07-09T06:14:40.561Z,17.19
2018-07-09T06:17:09.068Z,17.19
2018-07-09T06:19:37.349Z,17.34
2018-07-09T06:22:05.621Z,17.23
2018-07-09T06:24:33.856Z,17.28
2018-07-09T06:27:02.143Z,17.44
2018-07-09T06:29:30.362Z,17.37
2018-07-09T06:31:58.620Z,17.52
2018-07-09T06:34:26.866Z,17.63
2018-07-09T06:36:55.101Z,17.72
2018-07-09T06:39:23.389Z,17.73
2018-07-09T06:41:51.802Z,17.52
2018-07-09T06:44:20.108Z,17.40
2018-07-09T06:46:48.333Z,17.54
2018-07-09T06:49:16.654Z,17.59
2018-07-09T06:51:44.866Z,17.35
2018-07-09T06:54:13.075Z,17.52
2018-07-09T06:56:41.330Z,17.66
2018-07-09T06:59:09.531Z,17.68
2018-07-09T07:01:37.745Z,17.71
2018-07-09T07:04:06.033Z,17.56
2018-07-09T07:06:34.304Z,17.67
2018-07-09T07:09:02.622Z,17.79
2018-07-09T07:11:30.837Z,17.80
2018-07-09T07:13:59.075Z,17.81
2018-07-09T07:16:27.354Z,17.87
2018-07-09T07:18:55.508Z,17.86
2018-07-09T07:21:23.727Z,18.02
2018-07-09T07:23:52.020Z,17.99
2018-07-09T07:26:20.246Z,17.93
2018-07-09T07:28:48.578Z,18.00
2018-07-09T07:31:16.792Z,18.01
2018-07-09T07:33:45.011Z,17.97
2018-07-09T07:36:13.234Z,18.12
2018-07-09T07:38:42.117Z,18.26
2018-07-09T07:41:10.355Z,18.42
2018-07-09T07:43:38.615Z,18.44
2018-07-09T07:46:06.847Z,18.62
2018-07-09T07:48:35.108Z,18.56
2018-07-09T07:51:03.398Z,18.82
2018-07-09T07:53:31.604Z,18.81
2018-07-09T07:55:59.855Z,18.62
2018-07-09T07:58:28.126Z,18.79
2018-07-09T08:00:56.324Z,18.79
2018-07-09T08:03:24.582Z,18.86
2018-07-09T08:05:52.809Z,18.69
2018-07-09T08:08:21.159Z,18.73
2018-07-09T08:10:49.491Z,18.64
2018-07-09T08:13:27.981Z,18.90
2018-07-09T08:15:46.005Z,18.83
2018-07-09T08:18:15.119Z,18.80
2018-07-09T08:20:43.400Z,18.77
2018-07-09T08:23:11.622Z,18.78
2018-07-09T08:25:40.028Z,18.69
2018-07-09T08:28:08.118Z,18.75
2018-07-09T08:30:36.395Z,18.78
2018-07-09T08:33:04.594Z,18.90
2018-07-09T08:35:32.826Z,18.78
2018-07-09T08:38:01.060Z,18.91
2018-07-09T08:40:30.018Z,18.95
2018-07-09T08:42:58.243Z,19.09
2018-07-09T08:45:26.571Z,19.15
2018-07-09T08:47:54.860Z,19.28
2018-07-09T08:50:23.098Z,19.08
2018-07-09T08:52:51.321Z,19.31
2018-07-09T08:55:19.587Z,19.52
2018-07-09T08:57:47.820Z,19.50
2018-07-09T09:00:16.050Z,19.60
2018-07-09T09:02:44.347Z,19.60
2018-07-09T09:05:12.688Z,19.84
2018-07-09T09:07:40.888Z,19.87
2018-07-09T09:10:09.235Z,19.73
2018-07-09T09:12:37.463Z,19.79
2018-07-09T09:15:05.995Z,19.85
2018-07-09T09:17:34.233Z,20.15
2018-07-09T09:20:02.560Z,19.97
2018-07-09T09:22:30.822Z,20.19
2018-07-09T09:24:59.047Z,20.29
2018-07-09T09:27:27.303Z,20.22
2018-07-09T09:29:55.525Z,20.01
2018-07-09T09:32:23.814Z,20.13
2018-07-09T09:34:52.066Z,20.22
2018-07-09T09:37:20.432Z,20.54
2018-07-09T09:39:48.672Z,20.49
2018-07-09T09:42:16.898Z,20.84
2018-07-09T09:44:45.182Z,20.90
2018-07-09T09:47:13.438Z,20.93
2018-07-09T09:49:41.716Z,20.83
2018-07-09T09:52:09.961Z,21.05
2018-07-09T09:54:38.256Z,20.92
2018-07-09T09:57:06.451Z,21.05
2018-07-09T09:59:34.654Z,21.04
2018-07-09T10:02:02.931Z,21.00
2018-07-09T10:04:31.866Z,20.98
2018-07-09T10:07:00.269Z,20.92
2018-07-09T10:09:28.573Z,20.89
2018-07-09T10:11:56.868Z,21.11
2018-07-09T10:14:25.083Z,21.30
2018-07-09T10:16:53.324Z,21.29
2018-07-09T10:19:21.536Z,21.30
2018-07-09T10:21:49.797Z,21.45
2018-07-09T10:24:18.000Z,21.64
2018-07-09T10:26:46.225Z,21.82
2018-07-09T10:29:14.441Z,21.90
2018-07-09T10:31:42.839Z,21.99
2018-07-09T10:34:11.681Z,21.74
2018-07-09T10:36:39.947Z,21.70
2018-07-09T10:39:08.155Z,21.48
2018-07-09T10:41:36.369Z,21.25
2018-07-09T10:44:04.590Z,21.17
2018-07-09T10:46:32.788Z,21.09
2018-07-09T10:49:01.174Z,21.32
2018-07-09T10:51:29.416Z,21.25
2018-07-09T10:53:57.639Z,21.40
2018-07-09T10:56:25.893Z,21.77
2018-07-09T10:58:54.118Z,21.58
2018-07-09T11:01:22.381Z,21.52
2018-07-09T11:03:50.611Z,21.61
2018-07-09T11:06:18.855Z,21.90
2018-07-09T11:08:47.067Z,21.92
2018-07-09T11:11:15.317Z,21.78
2018-07-09T11:13:43.555Z,21.57
2018-07-09T11:16:11.853Z,21.80
2018-07-09T11:18:40.150Z,21.96
2018-07-09T11:21:08.388Z,21.78
2018-07-09T11:23:36.683Z,21.81
2018-07-09T11:26:04.898Z,21.89
2018-07-09T11:28:33.129Z,21.91
2018-07-09T11:31:01.371Z,21.91
2018-07-09T11:33:29.573Z,21.79
2018-07-09T11:35:57.864Z,21.54
2018-07-09T11:38:26.074Z,21.72
2018-07-09T11:40:54.328Z,21.82
2018-07-09T11:43:22.562Z,22.22
2018-07-09T11:45:50.824Z,21.98
2018-07-09T11:48:19.038Z,21.80
2018-07-09T11:50:47.453Z,21.71
2018-07-09T11:53:15.716Z,21.35
2018-07-09T11:55:44.023Z,21.81
2018-07-09T11:58:12.327Z,21.96
2018-07-09T12:00:40.565Z,21.61
2018-07-09T12:03:08.776Z,21.78
2018-07-09T12:05:36.988Z,21.49
2018-07-09T12:08:05.240Z,21.53
2018-07-09T12:10:33.461Z,21.70
2018-07-09T12:13:02.178Z,21.31
2018-07-09T12:15:30.413Z,21.49
2018-07-09T12:17:58.714Z,21.86
2018-07-09T12:20:26.936Z,21.68
2018-07-09T12:22:55.176Z,21.64
2018-07-09T12:25:23.413Z,21.72
2018-07-09T12:27:51.656Z,21.64
2018-07-09T12:30:19.987Z,21.85
2018-07-09T12:32:48.221Z,21.79
2018-07-09T12:35:16.537Z,21.58
2018-07-09T12:37:44.734Z,21.60
2018-07-09T12:40:13.169Z,21.77
2018-07-09T12:42:41.555Z,21.92
2018-07-09T12:45:09.815Z,21.83
2018-07-09T12:47:38.037Z,21.64
2018-07-09T12:50:06.311Z,21.37
2018-07-09T12:52:34.691Z,20.94
2018-07-09T12:55:02.954Z,21.39
2018-07-09T12:57:31.206Z,21.67
2018-07-09T12:59:59.431Z,21.78
2018-07-09T13:02:28.289Z,21.86
2018-07-09T13:04:56.510Z,21.98
2018-07-09T13:07:24.768Z,22.21
2018-07-09T13:09:53.000Z,21.88
2018-07-09T13:12:27.346Z,21.95
2018-07-09T13:14:56.601Z,21.86
2018-07-09T13:17:24.903Z,21.34
2018-07-09T13:19:53.120Z,21.42
2018-07-09T13:22:21.320Z,21.37
2018-07-09T13:24:49.870Z,21.33
2018-07-09T13:27:18.247Z,21.35
2018-07-09T13:29:46.920Z,21.53
2018-07-09T13:32:15.162Z,21.22
2018-07-09T13:34:43.513Z,21.21
2018-07-09T13:37:11.737Z,21.12
2018-07-09T13:39:39.970Z,21.00
2018-07-09T13:42:08.231Z,21.21
2018-07-09T13:44:36.411Z,21.07
2018-07-09T13:47:04.828Z,21.32
2018-07-09T13:49:33.114Z,21.05
2018-07-09T13:52:02.064Z,20.70
2018-07-09T13:54:30.368Z,20.62
2018-07-09T13:56:58.599Z,20.84
2018-07-09T13:59:26.832Z,21.01
2018-07-09T14:01:55.065Z,20.81
2018-07-09T14:04:23.257Z,20.87
2018-07-09T14:06:51.532Z,20.70
2018-07-09T14:09:19.803Z,20.82
2018-07-09T14:11:48.054Z,21.36
2018-07-09T14:14:16.270Z,21.57
2018-07-09T14:16:44.521Z,20.99
2018-07-09T14:20:30.784Z,21.02
2018-07-09T14:22:59.693Z,20.63
2018-07-09T14:25:28.019Z,20.44
2018-07-09T14:27:56.239Z,20.11
2018-07-09T14:30:24.593Z,19.86
2018-07-09T14:32:52.892Z,20.43
2018-07-09T14:35:21.277Z,20.43
2018-07-09T14:37:49.536Z,20.36
2018-07-09T14:40:17.822Z,20.18
2018-07-09T14:42:46.026Z,20.61
2018-07-09T14:45:14.682Z,20.60
2018-07-09T14:47:42.916Z,20.73
2018-07-09T14:50:11.130Z,20.27
2018-07-09T14:52:39.416Z,20.36
2018-07-09T14:55:07.649Z,20.64
2018-07-09T14:57:35.850Z,20.65
2018-07-09T15:00:04.538Z,20.58
2018-07-09T15:02:32.827Z,20.62
2018-07-09T15:05:01.144Z,20.60
2018-07-09T15:07:29.405Z,20.57
2018-07-09T15:09:57.622Z,20.50
2018-07-09T15:12:25.912Z,20.47
2018-07-09T15:14:54.140Z,20.34
2018-07-09T15:17:22.414Z,20.74
2018-07-09T15:19:50.678Z,20.59
2018-07-09T15:22:18.916Z,20.60
2018-07-09T15:24:47.195Z,20.44
2018-07-09T15:27:15.423Z,20.60
2018-07-09T15:29:43.657Z,20.52
2018-07-09T15:32:24.039Z,20.57
2018-07-09T15:34:52.578Z,20.63
2018-07-09T15:37:20.886Z,20.34
2018-07-09T15:39:50.119Z,20.44
2018-07-09T15:42:18.451Z,20.28
2018-07-09T15:44:46.767Z,20.27
2018-07-09T15:47:15.044Z,20.27
2018-07-09T15:49:45.483Z,20.43
2018-07-09T15:52:15.899Z,19.95
2018-07-09T15:54:44.889Z,19.91
2018-07-09T15:57:13.880Z,20.14
2018-07-09T15:59:42.903Z,20.41
2018-07-09T16:02:11.949Z,20.40
2018-07-09T16:04:40.664Z,20.21
2018-07-09T16:07:09.186Z,20.50
2018-07-09T16:09:37.529Z,20.31
2018-07-09T16:12:06.160Z,20.06
2018-07-09T16:14:34.645Z,20.52
2018-07-09T16:17:03.137Z,20.51
2018-07-09T16:19:31.454Z,20.39
2018-07-09T16:22:00.070Z,20.13
2018-07-09T16:24:28.303Z,19.95
2018-07-09T16:26:56.779Z,20.00
2018-07-09T16:29:25.177Z,19.95
2018-07-09T16:31:53.717Z,19.96
2018-07-09T16:34:23.347Z,19.87
2018-07-09T16:36:51.680Z,20.10
2018-07-09T16:39:20.216Z,19.63
2018-07-09T16:41:49.036Z,19.66
2018-07-09T16:44:17.544Z,19.76
2018-07-09T16:46:48.125Z,19.44
2018-07-09T16:49:17.711Z,19.75
2018-07-09T16:51:47.517Z,19.73
2018-07-09T16:54:16.138Z,19.63
2018-07-09T16:56:44.633Z,19.53
2018-07-09T16:59:13.114Z,19.61
2018-07-09T17:01:41.666Z,19.84
2018-07-09T17:04:10.000Z,20.05
2018-07-09T17:06:38.209Z,19.57
2018-07-09T17:09:07.355Z,19.55
2018-07-09T17:11:35.590Z,19.28
2018-07-09T17:14:03.955Z,19.55
2018-07-09T17:16:32.192Z,19.78
2018-07-09T17:19:00.424Z,19.86
2018-07-09T17:21:28.664Z,19.40
2018-07-09T17:23:56.967Z,19.33
2018-07-09T17:26:25.284Z,19.36
2018-07-09T17:28:53.923Z,19.55
2018-07-09T17:31:22.169Z,19.25
2018-07-09T17:33:50.494Z,19.59
2018-07-09T17:36:18.768Z,19.14
2018-07-09T17:38:47.020Z,19.36
2018-07-09T17:41:15.256Z,19.20
2018-07-09T17:43:43.534Z,19.21
2018-07-09T17:46:11.730Z,19.27
2018-07-09T17:48:39.944Z,19.15
2018-07-09T17:51:08.267Z,19.31
2018-07-09T17:53:36.480Z,19.30
2018-07-09T17:56:04.815Z,19.38
2018-07-09T17:58:33.031Z,19.34
2018-07-09T18:01:01.285Z,19.22
2018-07-09T18:03:29.516Z,19.32
2018-07-09T18:05:58.028Z,19.46
2018-07-09T18:08:26.385Z,19.08
2018-07-09T18:10:54.692Z,19.11
2018-07-09T18:13:23.076Z,19.21
2018-07-09T18:15:51.294Z,19.18
2018-07-09T18:18:19.547Z,19.05
2018-07-09T18:20:47.778Z,19.09
2018-07-09T18:23:16.010Z,19.22
2018-07-09T18:25:44.248Z,19.38
2018-07-09T18:28:12.450Z,19.30
2018-07-09T18:30:40.735Z,19.13
2018-07-09T18:33:08.969Z,18.85
2018-07-09T18:35:37.372Z,19.04
2018-07-09T18:38:05.494Z,18.84
2018-07-09T18:40:33.739Z,18.98
2018-07-09T18:43:01.994Z,18.92
2018-07-09T18:45:30.213Z,18.79
2018-07-09T18:47:58.461Z,18.82
2018-07-09T18:50:26.682Z,18.70
2018-07-09T18:52:54.995Z,18.63
2018-07-09T18:55:23.240Z,18.55
2018-07-09T18:57:51.505Z,18.50
2018-07-09T19:00:19.774Z,18.28
2018-07-09T19:02:48.292Z,18.23
2018-07-09T19:05:16.923Z,18.43
2018-07-09T19:07:45.284Z,18.40
2018-07-09T19:10:13.804Z,18.06
2018-07-09T19:12:42.057Z,18.49
2018-07-09T19:15:10.278Z,18.12
2018-07-09T19:18:00.379Z,18.40
2018-07-09T19:20:39.817Z,18.58
2018-07-09T19:23:07.868Z,18.31
2018-07-09T19:25:36.031Z,18.40
2018-07-09T19:28:04.511Z,18.37
2018-07-09T19:30:31.699Z,18.56
2018-07-09T19:32:58.943Z,18.05
2018-07-09T19:35:26.418Z,17.96
2018-07-09T19:37:54.008Z,18.12
2018-07-09T19:40:20.850Z,18.03
2018-07-09T19:42:48.017Z,18.13
2018-07-09T19:45:15.233Z,18.22
2018-07-09T19:47:42.529Z,18.29
2018-07-09T19:50:09.788Z,18.02
2018-07-09T19:52:37.089Z,18.32
2018-07-09T19:55:04.325Z,18.12
2018-07-09T19:57:31.515Z,18.48
2018-07-09T19:59:59.779Z,18.45
2018-07-09T20:02:28.188Z,17.82
2018-07-09T20:04:56.886Z,18.21
2018-07-09T20:07:24.096Z,17.93
2018-07-09T20:09:57.014Z,18.02
2018-07-09T20:12:29.719Z,18.35
2018-07-09T20:15:02.326Z,18.19
2018-07-09T20:17:29.770Z,18.12
2018-07-09T20:19:56.958Z,18.37
2018-07-09T20:22:24.166Z,18.15
2018-07-09T20:24:51.351Z,18.10
2018-07-09T20:27:18.537Z,17.90
2018-07-09T20:29:45.680Z,18.09
2018-07-09T20:32:12.923Z,18.05
2018-07-09T20:34:40.100Z,18.09
2018-07-09T20:37:07.402Z,17.94
2018-07-09T20:39:34.768Z,18.03
2018-07-09T20:42:01.983Z,17.66
2018-07-09T20:44:29.183Z,17.80
2018-07-09T20:46:56.470Z,17.82
2018-07-09T20:49:23.745Z,18.19
2018-07-09T20:51:51.144Z,17.97
2018-07-09T20:54:18.402Z,18.00
2018-07-09T20:56:45.549Z,17.99
2018-07-09T20:59:12.872Z,17.86
2018-07-09T21:01:40.102Z,17.99
2018-07-09T21:04:12.902Z,17.67
2018-07-09T21:06:40.424Z,17.76
2018-07-09T21:09:07.652Z,17.82
2018-07-09T21:11:34.815Z,17.91
2018-07-09T21:14:02.051Z,17.66
2018-07-09T21:16:29.224Z,17.93
2018-07-09T21:18:56.429Z,17.48
2018-07-09T21:21:28.003Z,17.83
2018-07-09T21:23:55.742Z,17.64
2018-07-09T21:26:23.236Z,17.40
2018-07-09T21:28:50.807Z,17.58
2018-07-09T21:31:18.081Z,17.53
2018-07-09T21:33:45.466Z,17.70
2018-07-09T21:36:13.280Z,17.62
2018-07-09T21:38:41.393Z,17.45
2018-07-09T21:41:08.818Z,17.36
2018-07-09T21:43:36.772Z,17.46
2018-07-09T21:46:03.964Z,17.21
2018-07-09T21:48:31.592Z,17.29
2018-07-09T21:50:58.796Z,17.20
2018-07-09T21:53:26.803Z,16.98
2018-07-09T21:55:54.319Z,17.10
2018-07-09T21:58:21.970Z,16.63
2018-07-09T22:00:49.219Z,16.74
2018-07-09T22:03:16.513Z,17.30
2018-07-09T22:05:43.752Z,17.20
2018-07-09T22:08:10.961Z,17.16
2018-07-09T22:10:38.139Z,17.02
2018-07-09T22:13:05.365Z,17.17
2018-07-09T22:15:32.545Z,17.22
2018-07-09T22:17:59.738Z,17.28
2018-07-09T22:20:27.241Z,17.31
2018-07-09T22:22:54.403Z,17.25
2018-07-09T22:25:21.557Z,17.28
2018-07-09T22:27:48.745Z,17.43
2018-07-09T22:30:19.371Z,17.67
2018-07-09T22:32:47.691Z,17.13
2018-07-09T22:35:15.914Z,17.45
2018-07-09T22:37:44.168Z,17.35
2018-07-09T22:40:12.431Z,17.32
2018-07-09T22:42:40.731Z,17.26
2018-07-09T22:45:08.964Z,17.55
2018-07-09T22:47:37.207Z,17.37
2018-07-09T22:50:05.436Z,17.60
2018-07-09T22:52:33.704Z,17.37
2018-07-09T22:55:13.249Z,17.42
2018-07-09T22:57:41.449Z,17.48
2018-07-09T23:00:09.697Z,17.30
2018-07-09T23:02:37.923Z,17.01
2018-07-09T23:05:06.768Z,17.11
2018-07-09T23:07:37.506Z,17.14
2018-07-09T23:10:17.122Z,17.26
2018-07-09T23:13:18.101Z,17.19
2018-07-09T23:15:57.784Z,17.22
2018-07-09T23:18:37.518Z,17.10
2018-07-09T23:23:51.841Z,16.83
2018-07-09T23:26:19.047Z,16.78
2018-07-09T23:28:46.289Z,16.85
2018-07-09T23:31:13.465Z,16.94
2018-07-09T23:33:40.680Z,16.73
2018-07-09T23:36:07.837Z,16.79
2018-07-09T23:38:35.020Z,16.88
2018-07-09T23:41:02.224Z,16.86
2018-07-09T23:43:29.404Z,16.47
2018-07-09T23:45:56.682Z,16.91
2018-07-09T23:48:23.865Z,16.63
2018-07-09T23:50:51.200Z,16.65
2018-07-09T23:53:18.446Z,16.59
2018-07-09T23:55:50.016Z,16.42
2018-07-09T23:59:29.214Z,16.58
